Pittsburgh International Airport
KPIT : rendu visible

Aérodrome :











RETROUVEZ-NOUS SUR...

 
LOGIN :

S'inscrire | Disclaimer

   EN    FR    IT 

 









Légende :    VFR   VFR Marginal   IFR   IFR Intensif   IFR Très Intensif
Visi : 
Plafond : 
>= 8 km
>= 3000ft
5 à 8 km
1000 à 3000 ft
1500m à 5 km
500 à 1000 ft
800 à 1500m
200 à 500 ft
< 800m
< 200 ft
Symboles :   Orages  Brouillard  Fortes neiges  Fortes précipitations  Vent > 20 kt






- Altitude de l'aérodrome : 1203 ft
- Code IATA : PIT


KPIT - Pittsburgh International

DERNIER METAR :
  • 211651Z 16008KT 9SM SCT100 OVC140 07/02 A3011 RMK AO2 SLP212 T00670022

METARs EXPIRÉS :
  • 211551Z 17007KT 7SM BKN140 OVC220 05/01 A3015 RMK AO2 SLP227 T00500011
  • 211451Z 16007KT 7SM SCT140 OVC220 03/00 A3016 RMK AO2 SLP231 T00280000 56016

TAF KPIT
Valide du 21 à 15h jusqu'au 22 à 18h UTC


211455Z 2115/2218 18009KT P6SM BKN150
FM212200 20010KT P6SM OVC080 WS020/23040KT
FM220300 24013KT P6SM VCSH OVC050 WS020/24040KT
FM220800 27012G18KT P6SM -SHRA OVC015
FM221400 30014G23KT P6SM VCSH BKN015
FM221700 30010KT P6SM BKN050



MET'MAP, la Météo Aéronautique d'un coup d'oeil ! - Copyright ORBIFLY Décembre 2007 - Disclaimer

ORBIFLY MET'MAP TEAM :

Programmation & Développement : Alexandra Zaïnal
Conception & Développement : Baudouin d'Aumeries
Co-Programmation & Développement : Marc-Olivier Méhu
Soutien technique & logistique : Manuel Goepfert

Contact : metmap@orbifly.com




SOURCES & CREDITS :

   NOAA       Earth
Advisory